Time;durP1;ratioP1;P1;durP2;ratioP2;P2;SDS_P1;SDS_P2;PMS_P1;PMS_P2;Temp;Humidity;BMP_temperature;BMP_pressure;BME280_temperature;BME280_humidity;BME280_pressure;Samples;Min_cycle;Max_cycle;Signal;HPM_P1;HPM_P2
2023/11/23 00:00:12;;;;;;;5.95;2.33;;;4.10;99.90;;;;;;5052865;28;20067;-62
2023/11/23 00:02:40;;;;;;;5.82;1.80;;;4.10;99.90;;;;;;5050099;28;20037;-58
2023/11/23 00:05:08;;;;;;;6.70;2.25;;;4.10;99.90;;;;;;5051825;28;20126;-59
2023/11/23 00:07:37;;;;;;;8.07;1.90;;;4.10;99.90;;;;;;5058259;28;20044;-61
2023/11/23 00:10:05;;;;;;;8.80;1.95;;;4.20;99.90;;;;;;5048123;28;20152;-58
2023/11/23 00:12:33;;;;;;;8.93;2.67;;;4.20;99.90;;;;;;5054719;28;20435;-60
2023/11/23 00:15:00;;;;;;;7.30;2.17;;;4.30;99.90;;;;;;5051596;28;20413;-61
2023/11/23 00:17:29;;;;;;;4.55;1.27;;;4.30;99.90;;;;;;5051074;28;20521;-60
2023/11/23 00:19:58;;;;;;;4.97;2.90;;;4.40;99.90;;;;;;5051222;28;20040;-59
2023/11/23 00:22:25;;;;;;;4.35;1.90;;;4.40;99.90;;;;;;5048502;28;20518;-60
2023/11/23 00:24:55;;;;;;;3.75;1.55;;;4.40;99.90;;;;;;5052204;28;20047;-59
2023/11/23 00:27:22;;;;;;;2.83;1.83;;;4.40;99.90;;;;;;5055999;28;20045;-60
2023/11/23 00:29:51;;;;;;;3.60;1.55;;;4.40;99.90;;;;;;5049923;28;20041;-59
2023/11/23 00:32:18;;;;;;;5.05;1.95;;;4.40;99.90;;;;;;5046001;28;20067;-61
2023/11/23 00:34:46;;;;;;;4.13;1.75;;;4.50;99.90;;;;;;5053691;28;20052;-61
2023/11/23 00:37:13;;;;;;;4.40;1.80;;;4.50;99.90;;;;;;5031149;28;20044;-59
2023/11/23 00:39:40;;;;;;;4.40;1.63;;;4.50;99.90;;;;;;5054277;28;20045;-58
2023/11/23 00:42:07;;;;;;;6.95;1.42;;;4.50;99.90;;;;;;5053734;28;20134;-61
2023/11/23 00:44:34;;;;;;;4.47;2.42;;;4.60;99.90;;;;;;5032828;28;20137;-59
2023/11/23 00:47:01;;;;;;;10.55;1.73;;;4.70;99.90;;;;;;5036151;28;20060;-65
2023/11/23 00:49:28;;;;;;;5.57;2.35;;;4.70;99.90;;;;;;5051283;28;20047;-60
2023/11/23 00:51:55;;;;;;;10.00;2.00;;;4.70;99.90;;;;;;5055404;28;20068;-60
2023/11/23 00:54:22;;;;;;;3.65;1.33;;;4.70;99.90;;;;;;5055958;28;20055;-59
2023/11/23 00:56:49;;;;;;;4.15;1.83;;;4.80;99.90;;;;;;5021240;28;20057;-60
2023/11/23 00:59:17;;;;;;;7.28;1.95;;;4.80;99.90;;;;;;5052013;28;20033;-59
2023/11/23 01:01:44;;;;;;;5.63;1.30;;;4.80;99.90;;;;;;5032640;28;20107;-62
2023/11/23 01:04:13;;;;;;;3.17;1.40;;;4.80;99.90;;;;;;5055548;28;20119;-63
2023/11/23 01:06:42;;;;;;;7.85;1.88;;;4.90;99.90;;;;;;5044848;28;20052;-64
2023/11/23 01:09:09;;;;;;;2.78;1.20;;;4.90;99.90;;;;;;5035473;28;20063;-62
2023/11/23 01:11:36;;;;;;;5.60;1.27;;;4.90;99.90;;;;;;5052723;28;20068;-59
2023/11/23 01:14:03;;;;;;;13.15;2.83;;;4.90;99.90;;;;;;5051441;28;20041;-60
2023/11/23 01:16:30;;;;;;;7.55;2.10;;;5.00;99.90;;;;;;5051595;28;20384;-60
2023/11/23 01:18:57;;;;;;;4.70;1.40;;;5.00;99.90;;;;;;5048897;28;20037;-59
2023/11/23 01:21:24;;;;;;;4.72;1.00;;;5.00;99.90;;;;;;5050745;28;20506;-59
2023/11/23 01:23:51;;;;;;;6.47;1.52;;;5.00;99.90;;;;;;5053085;28;20108;-59
2023/11/23 01:26:18;;;;;;;2.65;1.25;;;5.10;99.90;;;;;;5035883;28;20487;-63
2023/11/23 01:28:45;;;;;;;2.80;1.38;;;5.10;99.90;;;;;;5050318;28;20045;-61
2023/11/23 01:31:13;;;;;;;7.68;2.03;;;5.10;99.90;;;;;;5051535;28;20532;-59
2023/11/23 01:33:39;;;;;;;4.38;2.00;;;5.20;99.90;;;;;;5049631;28;20106;-60
2023/11/23 01:36:07;;;;;;;5.22;0.73;;;5.20;99.90;;;;;;5048174;28;20155;-60
2023/11/23 01:38:34;;;;;;;3.40;1.45;;;5.20;99.90;;;;;;5058594;28;20041;-59
2023/11/23 01:41:01;;;;;;;1.92;0.90;;;5.30;99.90;;;;;;5048043;28;20484;-63
2023/11/23 01:43:31;;;;;;;4.35;1.75;;;5.30;99.90;;;;;;5047395;28;20553;-63
2023/11/23 01:45:58;;;;;;;5.22;1.00;;;5.30;99.90;;;;;;5053594;28;20044;-59
2023/11/23 01:48:26;;;;;;;3.45;1.25;;;5.40;99.90;;;;;;5051640;28;20049;-62
2023/11/23 01:50:54;;;;;;;1.92;1.20;;;5.40;99.90;;;;;;5054449;28;20064;-60
2023/11/23 01:53:22;;;;;;;2.03;0.70;;;5.50;99.90;;;;;;5051067;28;20057;-60
2023/11/23 01:55:49;;;;;;;3.22;1.58;;;5.50;99.90;;;;;;5046129;28;20463;-62
2023/11/23 01:58:17;;;;;;;6.88;1.15;;;5.50;99.90;;;;;;5066593;28;20152;-62
2023/11/23 02:00:46;;;;;;;3.97;1.58;;;5.50;99.90;;;;;;5016879;28;20057;-65
2023/11/23 02:03:14;;;;;;;2.60;1.00;;;5.50;99.90;;;;;;5046124;28;20095;-64
2023/11/23 02:05:41;;;;;;;15.68;1.50;;;5.50;99.90;;;;;;5059471;28;20048;-59
2023/11/23 02:08:08;;;;;;;6.97;1.08;;;5.50;99.90;;;;;;5029024;28;20191;-59
2023/11/23 02:10:35;;;;;;;7.50;1.60;;;5.50;99.90;;;;;;5046069;28;20029;-61
2023/11/23 02:13:03;;;;;;;2.17;1.15;;;5.50;99.90;;;;;;5029599;28;20033;-60
2023/11/23 02:15:30;;;;;;;2.67;1.13;;;5.50;99.90;;;;;;5031727;28;20056;-59
2023/11/23 02:18:02;;;;;;;3.65;1.20;;;5.50;99.90;;;;;;5048418;28;20049;-61
2023/11/23 02:20:31;;;;;;;3.80;1.63;;;5.50;99.90;;;;;;5033777;28;20048;-60
2023/11/23 02:23:03;;;;;;;3.08;0.98;;;5.50;99.90;;;;;;5052488;28;20131;-61
2023/11/23 02:25:30;;;;;;;3.05;1.55;;;5.50;99.90;;;;;;5067492;28;20596;-59
2023/11/23 02:27:57;;;;;;;4.97;2.70;;;5.50;99.90;;;;;;5051475;28;20384;-62
2023/11/23 02:30:23;;;;;;;2.42;1.20;;;5.60;99.90;;;;;;5037521;28;20045;-62
2023/11/23 02:32:50;;;;;;;5.60;1.63;;;5.50;99.90;;;;;;5047847;28;20041;-60
2023/11/23 02:35:19;;;;;;;6.13;1.38;;;5.60;99.90;;;;;;5049381;28;20049;-67
2023/11/23 02:37:46;;;;;;;5.05;1.27;;;5.60;99.90;;;;;;5067883;28;20534;-61
2023/11/23 02:40:14;;;;;;;4.65;0.90;;;5.60;99.90;;;;;;5046016;28;20064;-60
2023/11/23 02:42:42;;;;;;;2.90;1.10;;;5.60;99.90;;;;;;5048067;28;20044;-65
2023/11/23 02:45:12;;;;;;;4.30;1.17;;;5.60;99.90;;;;;;5046746;28;20040;-60
2023/11/23 02:47:40;;;;;;;4.72;1.80;;;5.70;99.90;;;;;;5018527;28;20064;-59
2023/11/23 02:50:09;;;;;;;4.57;1.05;;;5.70;99.90;;;;;;5052081;28;20040;-61
2023/11/23 02:52:36;;;;;;;5.28;1.17;;;5.70;99.90;;;;;;5048153;28;20130;-64
2023/11/23 02:55:03;;;;;;;5.22;1.10;;;5.70;99.90;;;;;;5031407;28;20087;-59
2023/11/23 02:57:30;;;;;;;5.78;2.60;;;5.70;99.90;;;;;;5053684;28;20041;-60
2023/11/23 02:59:57;;;;;;;8.13;1.80;;;5.80;99.90;;;;;;5051060;28;20049;-65
2023/11/23 03:02:24;;;;;;;2.38;1.38;;;5.80;99.90;;;;;;5052973;28;20694;-60
2023/11/23 03:04:53;;;;;;;8.00;1.73;;;5.80;99.90;;;;;;5035639;28;20049;-63
2023/11/23 03:07:20;;;;;;;2.80;1.15;;;5.80;99.90;;;;;;5046519;28;20091;-61
2023/11/23 03:09:48;;;;;;;10.18;2.85;;;5.90;99.90;;;;;;5058411;28;20037;-63
2023/11/23 03:12:15;;;;;;;1.73;0.73;;;5.90;99.90;;;;;;5051862;28;20112;-60
2023/11/23 03:14:42;;;;;;;3.17;0.85;;;5.90;99.90;;;;;;5051507;28;20048;-65
2023/11/23 03:17:09;;;;;;;5.28;1.08;;;6.00;99.90;;;;;;5040987;28;20044;-60
2023/11/23 03:19:36;;;;;;;4.07;0.82;;;6.00;99.90;;;;;;5052178;28;20049;-60
2023/11/23 03:22:04;;;;;;;5.43;1.27;;;6.00;99.90;;;;;;5053270;28;20052;-59
2023/11/23 03:24:31;;;;;;;4.22;1.60;;;6.10;99.90;;;;;;5053829;28;20079;-60
2023/11/23 03:26:58;;;;;;;4.15;1.02;;;6.10;99.90;;;;;;5066456;28;20077;-66
2023/11/23 03:29:26;;;;;;;2.75;1.00;;;6.10;99.90;;;;;;5058852;28;20055;-61
2023/11/23 03:31:53;;;;;;;7.28;2.92;;;6.20;99.90;;;;;;5054288;28;20103;-59
2023/11/23 03:34:20;;;;;;;8.43;1.23;;;6.20;99.90;;;;;;5056054;28;20430;-60
2023/11/23 03:36:47;;;;;;;8.00;1.48;;;6.20;99.90;;;;;;5051195;28;20065;-64
2023/11/23 03:39:18;;;;;;;4.38;1.08;;;6.20;99.90;;;;;;5069414;28;20381;-59
2023/11/23 03:41:45;;;;;;;3.10;0.77;;;6.20;99.90;;;;;;5062463;28;20049;-63
2023/11/23 03:44:12;;;;;;;5.18;3.40;;;6.30;99.90;;;;;;5059229;28;20121;-61
2023/11/23 03:46:40;;;;;;;2.92;1.02;;;6.30;99.90;;;;;;5056986;28;20119;-62
2023/11/23 03:49:07;;;;;;;5.32;1.60;;;6.40;99.90;;;;;;5049419;28;20045;-62
2023/11/23 03:51:34;;;;;;;2.67;1.30;;;6.30;99.90;;;;;;5052250;28;20045;-66
2023/11/23 03:54:02;;;;;;;5.63;1.77;;;6.30;99.90;;;;;;5062490;28;20124;-60
2023/11/23 03:56:29;;;;;;;8.25;1.77;;;6.30;99.90;;;;;;5051792;28;20041;-59
2023/11/23 03:58:56;;;;;;;6.82;1.33;;;6.30;99.90;;;;;;5057228;28;20072;-60
2023/11/23 04:01:23;;;;;;;3.75;0.95;;;6.40;99.90;;;;;;5049780;28;20434;-59
2023/11/23 04:03:50;;;;;;;3.75;1.42;;;6.40;99.90;;;;;;5053036;28;20139;-60
2023/11/23 04:06:17;;;;;;;4.25;1.30;;;6.40;99.90;;;;;;5051754;28;20048;-60
2023/11/23 04:08:44;;;;;;;6.47;1.63;;;6.40;99.90;;;;;;5053010;28;20071;-60
2023/11/23 04:11:11;;;;;;;2.30;1.30;;;6.40;99.90;;;;;;5049854;28;20110;-65
2023/11/23 04:13:38;;;;;;;2.80;1.10;;;6.40;99.90;;;;;;5050738;28;20051;-62
2023/11/23 04:16:05;;;;;;;5.05;1.25;;;6.40;99.90;;;;;;5052507;28;20049;-59
2023/11/23 04:18:32;;;;;;;5.00;0.80;;;6.40;99.90;;;;;;5052669;28;20055;-61
2023/11/23 04:21:00;;;;;;;5.20;1.13;;;6.40;99.90;;;;;;5057097;28;20123;-62
2023/11/23 04:23:27;;;;;;;6.80;2.00;;;6.40;99.90;;;;;;5056979;28;20044;-59
2023/11/23 04:25:54;;;;;;;4.18;1.55;;;6.40;99.90;;;;;;5053154;28;20068;-60
2023/11/23 04:28:20;;;;;;;5.35;2.00;;;6.40;99.90;;;;;;5061894;28;20068;-62
2023/11/23 04:30:47;;;;;;;4.53;1.13;;;6.40;99.90;;;;;;5045996;28;20029;-60
2023/11/23 04:33:14;;;;;;;5.57;1.80;;;6.40;99.90;;;;;;5044332;28;20044;-61
2023/11/23 04:35:41;;;;;;;5.05;1.35;;;6.40;99.90;;;;;;5049121;28;20170;-61
2023/11/23 04:38:08;;;;;;;4.88;1.20;;;6.40;99.90;;;;;;5055921;28;20079;-61
2023/11/23 04:40:35;;;;;;;2.03;1.08;;;6.50;99.90;;;;;;5058325;28;20111;-59
2023/11/23 04:43:02;;;;;;;2.70;0.90;;;6.50;99.90;;;;;;5053596;28;20098;-63
2023/11/23 04:45:29;;;;;;;5.38;1.40;;;6.50;99.90;;;;;;5049277;28;20573;-60
2023/11/23 04:47:56;;;;;;;11.32;2.03;;;6.60;99.90;;;;;;5050859;28;20423;-59
2023/11/23 04:50:23;;;;;;;6.97;1.10;;;6.60;99.90;;;;;;5049875;28;20123;-67
2023/11/23 04:52:50;;;;;;;3.50;1.27;;;6.60;99.90;;;;;;5056491;28;20044;-63
2023/11/23 04:55:18;;;;;;;8.63;2.15;;;6.60;99.90;;;;;;5050369;28;20045;-61
2023/11/23 04:57:46;;;;;;;4.20;1.35;;;6.70;99.90;;;;;;5050152;28;20045;-62
2023/11/23 05:00:13;;;;;;;4.53;1.58;;;6.70;99.90;;;;;;5052435;28;20055;-60
2023/11/23 05:02:43;;;;;;;2.47;1.10;;;6.80;99.90;;;;;;5052025;28;20610;-59
2023/11/23 05:05:13;;;;;;;6.43;2.03;;;6.80;99.90;;;;;;5050968;28;20056;-64
2023/11/23 05:07:40;;;;;;;3.92;1.40;;;6.80;99.90;;;;;;5054918;28;20049;-63
2023/11/23 05:10:08;;;;;;;5.07;2.58;;;6.80;99.90;;;;;;5049799;28;20537;-61
2023/11/23 05:12:36;;;;;;;6.38;1.52;;;6.80;99.90;;;;;;5055466;28;20134;-60
2023/11/23 05:15:05;;;;;;;10.88;4.80;;;6.80;99.90;;;;;;5051227;28;20095;-59
2023/11/23 05:17:32;;;;;;;3.28;1.35;;;6.80;99.90;;;;;;5050435;28;20120;-60
2023/11/23 05:19:59;;;;;;;4.82;1.25;;;6.90;99.90;;;;;;5049150;28;20044;-60
2023/11/23 05:22:27;;;;;;;4.93;1.65;;;6.90;99.90;;;;;;5047777;28;20052;-60
2023/11/23 05:24:53;;;;;;;7.35;1.77;;;6.90;99.90;;;;;;5048335;28;20107;-62
2023/11/23 05:27:21;;;;;;;3.95;2.75;;;6.90;99.90;;;;;;5051552;28;20044;-61
2023/11/23 05:29:48;;;;;;;5.82;1.55;;;6.90;99.90;;;;;;5052106;28;20036;-60
2023/11/23 05:32:18;;;;;;;4.47;2.17;;;6.90;99.90;;;;;;5055367;28;20119;-59
2023/11/23 05:34:45;;;;;;;3.67;1.80;;;6.90;99.90;;;;;;5049114;28;20487;-63
2023/11/23 05:37:12;;;;;;;5.13;1.92;;;7.00;99.90;;;;;;5049824;28;20037;-61
2023/11/23 05:39:39;;;;;;;1.88;1.15;;;6.90;99.90;;;;;;5052804;28;20656;-61
2023/11/23 05:42:10;;;;;;;6.07;1.10;;;6.90;99.90;;;;;;5054748;28;20040;-61
2023/11/23 05:44:37;;;;;;;3.95;1.60;;;7.00;99.90;;;;;;5054098;28;20068;-60
2023/11/23 05:47:05;;;;;;;3.65;0.90;;;7.00;99.90;;;;;;5047996;28;20384;-63
2023/11/23 05:49:32;;;;;;;3.10;0.77;;;7.00;99.90;;;;;;5046883;28;20260;-61
2023/11/23 05:51:59;;;;;;;8.63;1.25;;;7.00;99.90;;;;;;5047361;28;20629;-59
2023/11/23 05:54:26;;;;;;;3.42;1.70;;;7.00;99.90;;;;;;5052043;28;20170;-59
2023/11/23 05:56:53;;;;;;;4.20;1.20;;;7.00;99.90;;;;;;5050160;28;20041;-59
2023/11/23 05:59:20;;;;;;;8.65;1.17;;;7.00;99.90;;;;;;5053578;28;20091;-61
2023/11/23 06:01:47;;;;;;;6.30;1.23;;;7.00;99.90;;;;;;5045896;28;20049;-63
2023/11/23 06:04:14;;;;;;;13.20;1.95;;;7.00;99.90;;;;;;5051148;28;20051;-59
2023/11/23 06:06:41;;;;;;;2.38;1.10;;;7.00;99.90;;;;;;5048575;28;20478;-62
2023/11/23 06:09:11;;;;;;;5.72;1.35;;;7.00;99.90;;;;;;5055807;28;20036;-62
2023/11/23 06:11:38;;;;;;;5.25;2.10;;;7.00;99.90;;;;;;5052062;28;20049;-60
2023/11/23 06:14:05;;;;;;;7.00;1.10;;;7.00;99.90;;;;;;5051884;28;20094;-59
2023/11/23 06:16:33;;;;;;;6.47;1.95;;;7.00;99.90;;;;;;5044199;28;20123;-60
2023/11/23 06:19:00;;;;;;;6.47;1.13;;;7.00;99.90;;;;;;5054550;28;20076;-61
2023/11/23 06:21:30;;;;;;;4.13;2.17;;;7.00;99.90;;;;;;5046846;28;20057;-59
2023/11/23 06:23:59;;;;;;;4.82;1.27;;;7.10;99.90;;;;;;5050538;28;20045;-60
2023/11/23 06:26:26;;;;;;;2.58;1.42;;;7.10;99.90;;;;;;5051556;28;20037;-59
2023/11/23 06:28:53;;;;;;;3.80;1.27;;;7.10;99.90;;;;;;5051786;28;20111;-59
2023/11/23 06:31:20;;;;;;;6.07;1.73;;;7.10;99.90;;;;;;5044585;28;20044;-59
2023/11/23 06:33:47;;;;;;;4.75;1.35;;;7.10;99.90;;;;;;5050653;28;20487;-60
2023/11/23 06:36:15;;;;;;;3.95;1.15;;;7.10;99.90;;;;;;5049483;28;20041;-60
2023/11/23 06:38:43;;;;;;;6.78;2.10;;;7.10;99.90;;;;;;5053764;28;20040;-60
2023/11/23 06:41:20;;;;;;;5.70;2.15;;;7.10;99.90;;;;;;5040976;28;20124;-59
2023/11/23 06:43:51;;;;;;;9.75;1.77;;;7.10;99.90;;;;;;5049279;28;20088;-61
2023/11/23 06:46:19;;;;;;;4.22;1.80;;;7.10;99.90;;;;;;5048231;28;20064;-60
2023/11/23 06:48:47;;;;;;;3.83;1.50;;;7.10;99.90;;;;;;5050171;28;20067;-60
2023/11/23 06:51:14;;;;;;;8.05;1.92;;;7.20;99.90;;;;;;5051173;28;20064;-63
2023/11/23 06:53:46;;;;;;;2.28;1.02;;;7.20;99.90;;;;;;5045330;28;20053;-59
2023/11/23 06:56:14;;;;;;;5.38;1.30;;;7.20;99.90;;;;;;5049316;28;20453;-59
2023/11/23 06:58:48;;;;;;;9.25;2.15;;;7.20;99.90;;;;;;5051674;28;20049;-62
2023/11/23 07:01:16;;;;;;;9.48;2.03;;;7.20;99.90;;;;;;5049966;28;20048;-62
2023/11/23 07:03:43;;;;;;;4.63;1.73;;;7.20;99.90;;;;;;5046955;28;20044;-61
2023/11/23 07:06:11;;;;;;;6.30;1.15;;;7.20;99.90;;;;;;5049236;28;20051;-60
2023/11/23 07:08:40;;;;;;;2.72;1.15;;;7.20;99.90;;;;;;5055174;28;20048;-59
2023/11/23 07:11:07;;;;;;;7.30;1.23;;;7.20;99.90;;;;;;5051919;28;20068;-59
2023/11/23 07:13:35;;;;;;;4.18;1.10;;;7.20;99.90;;;;;;5044360;28;20045;-61
2023/11/23 07:16:02;;;;;;;4.90;1.80;;;7.30;99.90;;;;;;5053247;28;20048;-61
2023/11/23 07:18:30;;;;;;;11.63;1.55;;;7.30;99.90;;;;;;5053183;28;20099;-59
2023/11/23 07:20:57;;;;;;;6.50;2.03;;;7.30;99.90;;;;;;5048497;28;20037;-59
2023/11/23 07:23:25;;;;;;;4.93;1.48;;;7.30;99.90;;;;;;5048357;28;20051;-60
2023/11/23 07:25:52;;;;;;;4.50;2.35;;;7.30;99.90;;;;;;5047562;28;20072;-61
2023/11/23 07:28:22;;;;;;;3.03;2.15;;;7.30;99.90;;;;;;5058810;28;20045;-59
2023/11/23 07:30:49;;;;;;;4.72;1.85;;;7.30;99.90;;;;;;5047845;28;20033;-59
2023/11/23 07:33:17;;;;;;;5.35;1.90;;;7.40;99.90;;;;;;5049221;28;20091;-59
2023/11/23 07:35:48;;;;;;;2.95;0.88;;;7.40;99.90;;;;;;5056151;28;20411;-61
2023/11/23 07:38:15;;;;;;;4.55;0.77;;;7.50;99.90;;;;;;5053066;28;20041;-60
2023/11/23 07:40:45;;;;;;;2.35;0.95;;;7.50;99.90;;;;;;5043512;28;20040;-65
2023/11/23 07:43:12;;;;;;;13.75;1.67;;;7.50;99.90;;;;;;5055588;28;20059;-60
2023/11/23 07:45:39;;;;;;;5.15;1.50;;;7.50;99.90;;;;;;5051918;28;20041;-60
2023/11/23 07:48:09;;;;;;;6.90;1.73;;;7.50;99.90;;;;;;5054946;28;20040;-60
2023/11/23 07:50:36;;;;;;;5.60;1.08;;;7.60;99.90;;;;;;5055203;28;20472;-59
2023/11/23 07:53:04;;;;;;;3.25;0.85;;;7.60;99.90;;;;;;5059604;28;20040;-59
2023/11/23 07:55:31;;;;;;;8.32;1.83;;;7.60;99.90;;;;;;5049196;28;20049;-60
2023/11/23 07:57:59;;;;;;;8.30;1.88;;;7.60;99.90;;;;;;5053223;28;20052;-61
2023/11/23 08:00:27;;;;;;;7.35;2.55;;;7.70;99.90;;;;;;5055740;28;20094;-60
2023/11/23 08:02:54;;;;;;;6.70;1.73;;;7.70;99.90;;;;;;5053782;28;20438;-61
2023/11/23 08:05:22;;;;;;;6.63;1.17;;;7.70;99.90;;;;;;5050500;28;20047;-62
2023/11/23 08:07:50;;;;;;;3.72;1.38;;;7.70;99.90;;;;;;5052501;28;20380;-59
2023/11/23 08:10:17;;;;;;;2.20;1.52;;;7.70;99.90;;;;;;5050236;28;20041;-59
2023/11/23 08:12:44;;;;;;;4.10;1.30;;;7.70;99.90;;;;;;5059193;28;20051;-61
2023/11/23 08:15:12;;;;;;;3.67;1.17;;;7.80;99.90;;;;;;5054050;28;20041;-60
2023/11/23 08:17:40;;;;;;;6.15;1.58;;;7.80;99.90;;;;;;5055522;28;20501;-65
2023/11/23 08:20:26;;;;;;;6.93;1.92;;;7.90;99.90;;;;;;5047900;28;20043;-59
2023/11/23 08:22:53;;;;;;;4.32;1.88;;;7.90;99.90;;;;;;5055121;28;20150;-60
2023/11/23 08:25:21;;;;;;;2.17;1.13;;;7.90;99.90;;;;;;5055616;28;20048;-60
2023/11/23 08:27:48;;;;;;;7.60;1.45;;;7.90;99.90;;;;;;5050912;28;20445;-59
2023/11/23 08:30:15;;;;;;;7.50;1.30;;;7.90;99.90;;;;;;5053723;28;20525;-60
2023/11/23 08:32:42;;;;;;;8.10;1.60;;;7.90;99.90;;;;;;5056955;28;20508;-63
2023/11/23 08:35:09;;;;;;;3.28;1.73;;;7.90;99.90;;;;;;5055846;28;20076;-59
2023/11/23 08:37:37;;;;;;;4.03;1.42;;;7.90;99.90;;;;;;5046342;28;20095;-59
2023/11/23 08:40:05;;;;;;;3.50;1.27;;;8.00;99.90;;;;;;5052672;28;20460;-61
2023/11/23 08:42:35;;;;;;;3.50;1.33;;;7.90;99.90;;;;;;5050827;28;20414;-61
2023/11/23 08:45:03;;;;;;;10.30;2.40;;;7.90;99.90;;;;;;5052314;28;20049;-61
2023/11/23 08:47:30;;;;;;;9.95;2.78;;;8.00;99.90;;;;;;5048991;28;20045;-59
2023/11/23 08:49:57;;;;;;;6.10;1.35;;;8.00;99.90;;;;;;5052437;28;20051;-59
2023/11/23 08:52:24;;;;;;;8.25;2.67;;;8.00;99.90;;;;;;5049459;28;20052;-60
2023/11/23 08:54:51;;;;;;;8.98;1.48;;;8.10;99.90;;;;;;5054976;28;20040;-59
2023/11/23 08:57:18;;;;;;;3.72;1.20;;;8.10;99.90;;;;;;5052430;28;20048;-60
2023/11/23 08:59:45;;;;;;;4.40;1.50;;;8.20;99.90;;;;;;5054501;28;20045;-62
2023/11/23 09:02:12;;;;;;;5.72;1.08;;;8.20;99.90;;;;;;5054141;28;20505;-59
2023/11/23 09:04:47;;;;;;;8.80;1.10;;;8.30;99.90;;;;;;5063980;28;20127;-65
2023/11/23 09:07:15;;;;;;;4.50;1.08;;;8.30;99.90;;;;;;5049558;28;20041;-61
2023/11/23 09:09:42;;;;;;;10.07;2.00;;;8.30;99.90;;;;;;5047049;28;20072;-60
2023/11/23 09:12:09;;;;;;;2.72;1.45;;;8.30;99.90;;;;;;5061827;28;20064;-63
2023/11/23 09:14:36;;;;;;;5.75;1.75;;;8.30;99.90;;;;;;5055721;28;20134;-61
2023/11/23 09:17:15;;;;;;;5.28;1.50;;;8.30;99.90;;;;;;5055046;28;20367;-61
2023/11/23 09:19:42;;;;;;;4.40;1.08;;;8.30;99.90;;;;;;5055574;28;20380;-63
2023/11/23 09:22:10;;;;;;;2.58;0.75;;;8.30;99.90;;;;;;5053744;28;20515;-59
2023/11/23 09:24:38;;;;;;;3.25;1.33;;;8.30;99.90;;;;;;5051711;28;20131;-60
2023/11/23 09:27:12;;;;;;;3.08;1.20;;;8.30;99.90;;;;;;5053794;28;20049;-60
2023/11/23 09:29:39;;;;;;;4.32;1.10;;;8.30;99.90;;;;;;5049090;28;20068;-60
2023/11/23 09:32:07;;;;;;;1.48;0.70;;;8.30;99.90;;;;;;5047467;28;20049;-60
2023/11/23 09:34:34;;;;;;;2.95;1.45;;;8.30;99.90;;;;;;5053342;28;20491;-60
2023/11/23 09:37:01;;;;;;;5.18;1.55;;;8.30;99.90;;;;;;5055373;28;20040;-60
2023/11/23 09:39:28;;;;;;;6.70;2.05;;;8.20;99.90;;;;;;5056893;28;20441;-61
2023/11/23 09:41:58;;;;;;;6.25;1.50;;;8.30;99.90;;;;;;5051716;28;21257;-60
2023/11/23 09:44:29;;;;;;;4.57;1.27;;;8.30;99.90;;;;;;5052539;28;20053;-60
2023/11/23 09:46:56;;;;;;;5.00;1.58;;;8.30;99.90;;;;;;5045091;28;20064;-61
2023/11/23 09:49:24;;;;;;;4.75;1.10;;;8.30;99.90;;;;;;5046652;28;20053;-60
2023/11/23 09:51:55;;;;;;;4.05;0.80;;;8.30;99.90;;;;;;5050993;28;20036;-59
2023/11/23 09:54:26;;;;;;;4.85;2.40;;;8.30;99.90;;;;;;5055929;28;20478;-61
2023/11/23 09:56:53;;;;;;;3.35;1.50;;;8.30;99.90;;;;;;5049093;28;20052;-60
2023/11/23 09:59:21;;;;;;;8.38;3.70;;;8.30;99.90;;;;;;5051166;28;20040;-63
2023/11/23 10:01:52;;;;;;;5.47;2.22;;;8.30;99.90;;;;;;5048139;28;20055;-62
2023/11/23 10:04:20;;;;;;;5.28;1.77;;;8.30;99.90;;;;;;5052148;28;20037;-61
2023/11/23 10:06:47;;;;;;;2.13;0.88;;;8.30;99.90;;;;;;5055448;28;20068;-64
2023/11/23 10:09:15;;;;;;;2.78;1.23;;;8.40;99.90;;;;;;5051836;28;20045;-62
2023/11/23 10:11:42;;;;;;;5.20;1.95;;;8.30;99.90;;;;;;5049082;28;20041;-59
2023/11/23 10:14:10;;;;;;;7.57;2.78;;;8.30;99.90;;;;;;5046099;28;20037;-62
2023/11/23 10:16:37;;;;;;;4.00;1.65;;;8.30;99.90;;;;;;5053015;28;20076;-59
2023/11/23 10:19:05;;;;;;;4.80;1.50;;;8.30;99.90;;;;;;5051444;28;20124;-60
2023/11/23 10:21:32;;;;;;;4.72;1.27;;;8.30;99.90;;;;;;5050527;28;20083;-61
2023/11/23 10:24:08;;;;;;;8.07;3.50;;;8.30;99.90;;;;;;5053613;28;20815;-61
2023/11/23 10:26:35;;;;;;;6.43;0.90;;;8.30;99.90;;;;;;5052570;28;20168;-66
2023/11/23 10:29:03;;;;;;;19.88;5.30;;;8.30;99.90;;;;;;5050271;28;20422;-61
2023/11/23 10:31:30;;;;;;;6.68;1.60;;;8.30;99.90;;;;;;5046447;28;20040;-59
2023/11/23 10:33:58;;;;;;;4.07;1.45;;;8.30;99.90;;;;;;5047823;28;20132;-60
2023/11/23 10:36:27;;;;;;;11.60;3.22;;;8.30;99.90;;;;;;5052315;28;20053;-63
2023/11/23 10:38:59;;;;;;;5.57;1.85;;;8.30;99.90;;;;;;5050467;28;20051;-62
2023/11/23 10:41:27;;;;;;;12.43;3.60;;;8.30;99.90;;;;;;5047345;28;20490;-62
2023/11/23 10:43:54;;;;;;;8.77;2.47;;;8.30;99.90;;;;;;5053752;28;20117;-62
2023/11/23 10:46:23;;;;;;;9.35;2.15;;;8.30;99.90;;;;;;5049678;28;20076;-60
2023/11/23 10:48:52;;;;;;;5.13;1.27;;;8.20;99.90;;;;;;5047224;28;20044;-63
2023/11/23 10:51:22;;;;;;;9.38;2.60;;;8.20;99.90;;;;;;5035092;28;20775;-65
2023/11/23 10:53:49;;;;;;;;;;;8.10;99.90;;;;;;5048234;28;20474;-61
2023/11/23 10:56:29;;;;;;;5.45;1.67;;;8.10;99.90;;;;;;5050568;28;20367;-63
2023/11/23 10:59:08;;;;;;;13.85;3.15;;;8.10;99.90;;;;;;5050543;28;20053;-60
2023/11/23 11:01:37;;;;;;;4.53;1.50;;;8.10;99.90;;;;;;5057795;28;20041;-61
2023/11/23 11:04:05;;;;;;;17.23;2.50;;;8.10;99.90;;;;;;5049197;28;20789;-60
2023/11/23 11:06:41;;;;;;;8.93;2.80;;;8.10;99.90;;;;;;5052015;28;20051;-60
2023/11/23 11:09:15;;;;;;;10.98;3.15;;;8.10;99.90;;;;;;5054142;28;20033;-60
2023/11/23 11:11:45;;;;;;;8.15;2.28;;;8.10;99.90;;;;;;5054129;28;20037;-60
2023/11/23 11:14:13;;;;;;;4.03;1.90;;;8.10;99.90;;;;;;5059768;28;20072;-60
2023/11/23 11:16:40;;;;;;;7.82;2.05;;;8.10;99.90;;;;;;5067194;28;20048;-62
2023/11/23 11:19:11;;;;;;;10.90;2.25;;;8.20;99.90;;;;;;5054126;28;20407;-61
2023/11/23 11:21:44;;;;;;;3.83;1.73;;;8.20;99.90;;;;;;5055658;28;20119;-61
2023/11/23 11:24:21;;;;;;;6.13;2.38;;;8.20;99.90;;;;;;5052839;28;20048;-61
2023/11/23 11:26:49;;;;;;;9.73;1.33;;;8.20;99.90;;;;;;5048070;28;20124;-60
2023/11/23 11:29:17;;;;;;;7.93;2.20;;;8.30;99.90;;;;;;5056934;28;20041;-60
2023/11/23 11:31:49;;;;;;;8.90;2.40;;;8.30;99.90;;;;;;5036346;28;20449;-62
2023/11/23 11:34:21;;;;;;;11.57;2.65;;;8.30;99.90;;;;;;5052198;28;20674;-60
2023/11/23 11:36:59;;;;;;;6.15;2.58;;;8.30;99.90;;;;;;5054288;28;20048;-60
2023/11/23 11:39:36;;;;;;;10.23;1.95;;;8.30;99.90;;;;;;5055008;28;20099;-60
2023/11/23 11:42:04;;;;;;;5.75;1.20;;;8.30;99.90;;;;;;5053695;28;20140;-61
2023/11/23 11:44:36;;;;;;;9.38;1.52;;;8.30;99.90;;;;;;5054610;28;20047;-63
2023/11/23 11:47:08;;;;;;;3.03;1.38;;;8.30;99.90;;;;;;5050270;28;20050;-60
2023/11/23 11:49:35;;;;;;;5.97;1.83;;;8.30;99.90;;;;;;5052015;28;20083;-60
2023/11/23 11:52:02;;;;;;;6.30;2.40;;;8.20;99.90;;;;;;5049154;28;20041;-62
2023/11/23 11:54:30;;;;;;;9.32;2.00;;;8.20;99.90;;;;;;5048945;28;20072;-61
2023/11/23 11:56:57;;;;;;;6.80;2.60;;;8.20;99.90;;;;;;5053028;28;20034;-61
2023/11/23 11:59:25;;;;;;;10.50;2.00;;;8.20;99.90;;;;;;5054555;28;20051;-62
2023/11/23 12:01:56;;;;;;;4.60;1.55;;;8.20;99.90;;;;;;5050580;28;20111;-60
2023/11/23 12:04:23;;;;;;;9.10;3.40;;;8.20;99.90;;;;;;5049455;28;20087;-60
2023/11/23 12:06:52;;;;;;;7.13;2.25;;;8.20;99.90;;;;;;5047993;28;20040;-61
2023/11/23 12:09:22;;;;;;;9.18;1.60;;;8.20;99.90;;;;;;5051015;28;20056;-63
2023/11/23 12:12:04;;;;;;;3.60;1.50;;;8.20;99.90;;;;;;5046042;28;20219;-60
2023/11/23 12:14:36;;;;;;;7.57;1.25;;;8.20;99.90;;;;;;5049826;28;20127;-66
2023/11/23 12:17:12;;;;;;;5.43;1.73;;;8.20;99.90;;;;;;5053775;28;20095;-65
2023/11/23 12:19:54;;;;;;;7.03;1.73;;;8.20;99.90;;;;;;5047935;28;20051;-61
2023/11/23 12:22:22;;;;;;;9.00;2.13;;;8.20;99.90;;;;;;5046862;28;20487;-66
2023/11/23 12:24:51;;;;;;;9.85;2.47;;;8.20;99.90;;;;;;5050447;28;20087;-64
2023/11/23 12:27:20;;;;;;;12.43;1.90;;;8.20;99.90;;;;;;5050573;28;20132;-60
2023/11/23 12:29:48;;;;;;;6.38;1.70;;;8.20;99.90;;;;;;5050901;28;20040;-64
2023/11/23 12:32:16;;;;;;;11.52;2.83;;;8.20;99.90;;;;;;5051516;28;20091;-62
2023/11/23 12:34:44;;;;;;;5.32;1.52;;;8.20;99.90;;;;;;5048309;28;20037;-65
2023/11/23 12:37:10;;;;;;;11.77;3.78;;;8.20;99.90;;;;;;5049778;28;20436;-62
2023/11/23 12:39:37;;;;;;;7.22;1.80;;;8.20;99.90;;;;;;5053199;28;20044;-62
2023/11/23 12:42:04;;;;;;;5.28;1.42;;;8.10;99.90;;;;;;5053515;28;20735;-60
2023/11/23 12:44:35;;;;;;;7.70;3.45;;;8.10;99.90;;;;;;5048981;28;20123;-63
2023/11/23 12:47:02;;;;;;;7.13;1.50;;;8.10;99.90;;;;;;5049183;28;20166;-61
2023/11/23 12:49:29;;;;;;;9.07;2.08;;;8.00;99.90;;;;;;5051637;28;20040;-62
2023/11/23 12:51:57;;;;;;;5.15;1.80;;;8.00;99.90;;;;;;5043862;28;20037;-64
2023/11/23 12:54:24;;;;;;;6.15;0.98;;;8.00;99.90;;;;;;5047526;28;20057;-65
2023/11/23 12:56:52;;;;;;;7.40;2.92;;;8.00;99.90;;;;;;5050722;28;20372;-61
2023/11/23 12:59:18;;;;;;;7.63;1.83;;;8.00;99.90;;;;;;5049615;28;20041;-60